createdAt,value
2022-12-11T00:01:46.970Z,54.80
2022-12-11T00:04:14.584Z,54.67
2022-12-11T00:06:42.573Z,53.78
2022-12-11T00:09:10.319Z,53.88
2022-12-11T00:11:37.973Z,53.63
2022-12-11T00:14:05.552Z,54.30
2022-12-11T00:16:33.070Z,52.40
2022-12-11T00:19:00.590Z,53.58
2022-12-11T00:21:28.133Z,55.08
2022-12-11T00:23:55.647Z,59.03
2022-12-11T00:26:23.349Z,57.40
2022-12-11T00:28:55.367Z,55.47
2022-12-11T00:33:50.795Z,57.95
2022-12-11T00:36:27.776Z,56.92
2022-12-11T00:38:55.260Z,58.60
2022-12-11T00:41:22.920Z,58.58
2022-12-11T00:43:50.544Z,54.03
2022-12-11T00:46:18.401Z,54.88
2022-12-11T00:48:46.279Z,58.38
2022-12-11T00:51:13.871Z,54.42
2022-12-11T00:53:41.346Z,49.70
2022-12-11T00:56:26.723Z,54.90
2022-12-11T00:58:54.491Z,52.28
2022-12-11T01:01:23.725Z,48.90
2022-12-11T01:03:53.464Z,53.78
2022-12-11T01:06:23.250Z,52.20
2022-12-11T01:09:13.785Z,49.03
2022-12-11T01:11:42.179Z,54.33
2022-12-11T01:14:10.181Z,51.00
2022-12-11T01:16:39.415Z,48.15
2022-12-11T01:19:07.139Z,48.65
2022-12-11T01:21:34.611Z,48.17
2022-12-11T01:24:02.083Z,44.22
2022-12-11T01:26:30.833Z,46.85
2022-12-11T01:29:01.024Z,47.45
2022-12-11T01:31:28.578Z,48.58
2022-12-11T01:33:56.127Z,50.80
2022-12-11T01:36:23.846Z,47.85
2022-12-11T01:38:51.554Z,46.35
2022-12-11T01:41:19.161Z,46.25
2022-12-11T01:43:58.796Z,43.63
2022-12-11T01:46:26.736Z,48.60
2022-12-11T01:48:54.923Z,44.58
2022-12-11T01:51:23.317Z,49.78
2022-12-11T01:53:54.456Z,46.47
2022-12-11T01:56:22.231Z,45.70
2022-12-11T01:58:51.571Z,49.50
2022-12-11T02:01:23.551Z,47.83
2022-12-11T02:03:54.287Z,46.90
2022-12-11T02:06:33.901Z,47.47
2022-12-11T02:09:02.125Z,49.67
2022-12-11T02:11:33.949Z,49.53
2022-12-11T02:14:06.431Z,50.20
2022-12-11T02:16:38.065Z,47.53
2022-12-11T02:19:15.984Z,47.63
2022-12-11T02:21:48.724Z,44.15
2022-12-11T02:24:28.011Z,47.40
2022-12-11T02:26:59.940Z,46.00
2022-12-11T02:29:32.764Z,46.28
2022-12-11T02:32:03.611Z,42.65
2022-12-11T02:34:31.124Z,42.35
2022-12-11T02:37:02.665Z,45.75
2022-12-11T02:39:31.052Z,51.05
2022-12-11T02:41:59.253Z,58.67
2022-12-11T02:44:28.908Z,49.58
2022-12-11T02:46:56.645Z,46.22
2022-12-11T02:49:25.104Z,44.30
2022-12-11T02:51:53.231Z,39.33
2022-12-11T02:54:25.805Z,39.38
2022-12-11T02:57:19.069Z,41.33
2022-12-11T02:59:48.272Z,41.65
2022-12-11T03:02:17.340Z,43.05
2022-12-11T03:04:45.345Z,45.15
2022-12-11T03:07:15.810Z,44.38
2022-12-11T03:09:44.761Z,49.60
2022-12-11T03:12:20.993Z,48.35
2022-12-11T03:14:49.211Z,51.30
2022-12-11T03:17:22.002Z,56.10
2022-12-11T03:19:49.696Z,62.03
2022-12-11T03:22:18.864Z,57.25
2022-12-11T03:25:03.403Z,57.90
2022-12-11T03:27:37.585Z,60.25
2022-12-11T03:30:13.446Z,61.50
2022-12-11T03:32:51.038Z,56.53
2022-12-11T03:35:24.437Z,61.45
2022-12-11T03:37:52.952Z,64.40
2022-12-11T03:40:22.278Z,64.20
2022-12-11T03:42:52.051Z,72.72
2022-12-11T03:45:20.947Z,78.07
2022-12-11T03:47:49.516Z,94.03
2022-12-11T03:50:18.099Z,115.80
2022-12-11T03:52:46.888Z,103.90
2022-12-11T03:55:16.730Z,78.28
2022-12-11T03:57:44.376Z,71.75
2022-12-11T04:00:14.039Z,59.88
2022-12-11T04:02:42.430Z,58.40
2022-12-11T04:05:11.393Z,52.45
2022-12-11T04:07:39.146Z,53.38
2022-12-11T04:10:07.616Z,50.78
2022-12-11T04:12:35.162Z,50.55
2022-12-11T04:15:02.745Z,50.72
2022-12-11T04:17:53.602Z,47.67
2022-12-11T04:20:39.840Z,46.97
2022-12-11T04:23:30.999Z,52.47
2022-12-11T04:26:06.120Z,46.80
2022-12-11T04:28:34.229Z,46.92
2022-12-11T04:31:01.763Z,51.33
2022-12-11T04:33:30.000Z,44.10
2022-12-11T04:36:01.420Z,50.45
2022-12-11T04:38:29.016Z,47.28
2022-12-11T04:41:04.381Z,47.53
2022-12-11T04:43:32.234Z,49.17
2022-12-11T04:46:04.625Z,46.55
2022-12-11T04:48:32.340Z,49.15
2022-12-11T04:51:00.276Z,50.50
2022-12-11T04:53:28.253Z,45.65
2022-12-11T04:55:55.919Z,52.25
2022-12-11T04:58:23.735Z,49.17
2022-12-11T05:00:51.452Z,45.00
2022-12-11T05:03:19.113Z,43.58
2022-12-11T05:05:53.259Z,46.35
2022-12-11T05:08:21.449Z,45.85
2022-12-11T05:11:03.209Z,51.63
2022-12-11T05:13:31.224Z,54.47
2022-12-11T05:15:59.280Z,50.58
2022-12-11T05:18:27.170Z,47.05
2022-12-11T05:21:08.984Z,46.25
2022-12-11T05:23:36.706Z,51.00
2022-12-11T05:26:06.215Z,51.15
2022-12-11T05:28:35.237Z,48.78
2022-12-11T05:31:04.481Z,46.85
2022-12-11T05:33:32.323Z,51.47
2022-12-11T05:36:03.255Z,52.55
2022-12-11T05:38:30.880Z,47.92
2022-12-11T05:41:02.536Z,44.28
2022-12-11T05:43:31.119Z,48.28
2022-12-11T05:46:05.807Z,48.30
2022-12-11T05:48:33.590Z,50.85
2022-12-11T05:51:02.162Z,48.22
2022-12-11T05:53:30.068Z,49.83
2022-12-11T05:56:13.613Z,47.58
2022-12-11T05:58:42.084Z,42.97
2022-12-11T06:01:11.564Z,45.67
2022-12-11T06:03:39.505Z,42.80
2022-12-11T06:06:07.510Z,44.58
2022-12-11T06:08:35.656Z,46.55
2022-12-11T06:11:03.377Z,47.17
2022-12-11T06:13:30.967Z,45.33
2022-12-11T06:16:05.741Z,49.33
2022-12-11T06:18:36.344Z,47.00
2022-12-11T06:21:11.376Z,51.17
2022-12-11T06:23:38.951Z,48.17
2022-12-11T06:26:07.125Z,54.67
2022-12-11T06:28:34.777Z,55.00
2022-12-11T06:31:02.466Z,53.92
2022-12-11T06:33:30.403Z,52.03
2022-12-11T06:35:58.084Z,45.22
2022-12-11T06:38:25.607Z,48.40
2022-12-11T06:40:57.084Z,45.78
2022-12-11T06:43:24.948Z,49.00
2022-12-11T06:45:52.715Z,53.85
2022-12-11T06:48:20.892Z,48.83
2022-12-11T06:50:48.523Z,46.65
2022-12-11T06:53:16.757Z,48.28
2022-12-11T06:55:44.569Z,46.45
2022-12-11T06:58:12.200Z,47.60
2022-12-11T07:00:39.893Z,44.47
2022-12-11T07:03:07.658Z,46.20
2022-12-11T07:05:35.321Z,44.70
2022-12-11T07:08:03.022Z,43.45
2022-12-11T07:10:30.683Z,43.35
2022-12-11T07:12:58.310Z,41.50
2022-12-11T07:15:25.864Z,39.38
2022-12-11T07:17:53.440Z,40.97
2022-12-11T07:20:21.006Z,42.08
2022-12-11T07:22:48.619Z,38.35
2022-12-11T07:25:16.297Z,37.15
2022-12-11T07:27:43.861Z,37.10
2022-12-11T07:30:11.842Z,38.20
2022-12-11T07:32:39.421Z,39.22
2022-12-11T07:35:07.124Z,35.10
2022-12-11T07:37:34.770Z,42.88
2022-12-11T07:40:02.272Z,41.28
2022-12-11T07:42:29.912Z,40.13
2022-12-11T07:44:57.479Z,41.55
2022-12-11T07:47:25.014Z,37.55
2022-12-11T07:49:52.593Z,41.50
2022-12-11T07:52:20.235Z,42.83
2022-12-11T07:54:47.782Z,37.05
2022-12-11T07:57:15.404Z,38.65
2022-12-11T07:59:46.811Z,39.97
2022-12-11T08:02:14.517Z,39.28
2022-12-11T08:04:42.142Z,41.03
2022-12-11T08:07:09.723Z,42.65
2022-12-11T08:09:37.553Z,40.40
2022-12-11T08:12:05.628Z,43.45
2022-12-11T08:14:33.198Z,40.88
2022-12-11T08:17:02.323Z,44.55
2022-12-11T08:19:30.047Z,39.50
2022-12-11T08:22:04.482Z,40.70
2022-12-11T08:30:13.560Z,42.50
2022-12-11T08:32:48.104Z,39.30
2022-12-11T08:35:15.837Z,37.00
2022-12-11T08:37:43.525Z,40.67
2022-12-11T08:40:12.284Z,42.75
2022-12-11T08:42:43.432Z,45.55
2022-12-11T08:45:15.049Z,36.00
2022-12-11T08:47:43.096Z,38.40
2022-12-11T08:50:15.037Z,41.72
2022-12-11T08:52:51.980Z,40.53
2022-12-11T08:55:27.029Z,40.88
2022-12-11T08:57:54.675Z,38.92
2022-12-11T09:00:22.393Z,40.50
2022-12-11T09:02:51.693Z,36.88
2022-12-11T09:05:19.802Z,41.08
2022-12-11T09:07:47.691Z,44.17
2022-12-11T09:10:15.483Z,42.53
2022-12-11T09:12:44.239Z,50.65
2022-12-11T09:15:12.380Z,45.03
2022-12-11T09:17:40.329Z,45.30
2022-12-11T09:20:10.174Z,44.50
2022-12-11T09:22:39.844Z,44.22
2022-12-11T09:25:14.098Z,47.80
2022-12-11T09:27:46.797Z,47.13
2022-12-11T09:30:23.121Z,44.40
2022-12-11T09:32:50.794Z,47.65
2022-12-11T09:35:21.008Z,47.58
2022-12-11T09:37:48.567Z,45.88
2022-12-11T09:40:16.262Z,44.75
2022-12-11T09:42:50.453Z,40.80
2022-12-11T09:45:18.476Z,39.30
2022-12-11T09:47:51.104Z,40.50
2022-12-11T09:50:29.064Z,42.97
2022-12-11T09:53:06.068Z,44.40
2022-12-11T09:55:56.581Z,40.75
2022-12-11T09:58:37.031Z,41.33
2022-12-11T10:01:19.318Z,39.27
2022-12-11T10:04:15.108Z,35.90
2022-12-11T10:07:10.257Z,35.30
2022-12-11T10:09:50.358Z,38.92
2022-12-11T10:12:17.868Z,37.63
2022-12-11T10:14:56.130Z,39.95
2022-12-11T10:17:28.206Z,41.70
2022-12-11T10:19:59.442Z,39.20
2022-12-11T10:25:12.319Z,41.95
2022-12-11T10:27:44.676Z,41.83
2022-12-11T10:30:17.127Z,38.22
2022-12-11T10:32:56.992Z,39.38
2022-12-11T10:35:31.763Z,39.95
2022-12-11T10:38:05.082Z,38.58
2022-12-11T10:40:36.518Z,42.33
2022-12-11T10:43:04.189Z,39.60
2022-12-11T10:45:34.666Z,30.98
2022-12-11T10:48:06.657Z,28.85
2022-12-11T10:50:34.318Z,34.50
2022-12-11T10:53:05.108Z,34.45
2022-12-11T10:55:40.305Z,31.42
2022-12-11T10:58:10.134Z,30.88
2022-12-11T11:00:41.713Z,30.10
2022-12-11T11:03:21.449Z,31.60
2022-12-11T11:05:50.598Z,25.55
2022-12-11T11:08:25.602Z,26.83
2022-12-11T11:10:57.748Z,23.15
2022-12-11T11:13:26.521Z,24.00
2022-12-11T11:16:01.374Z,27.05
2022-12-11T11:21:20.519Z,25.40
2022-12-11T11:23:56.080Z,24.45
2022-12-11T11:26:56.266Z,23.83
2022-12-11T11:29:36.318Z,22.90
2022-12-11T11:32:21.612Z,22.05
2022-12-11T11:34:49.520Z,23.40
2022-12-11T11:37:25.161Z,22.42
2022-12-11T11:39:59.733Z,22.77
2022-12-11T11:42:36.522Z,24.00
2022-12-11T11:45:13.136Z,23.52
2022-12-11T11:47:44.325Z,22.20
2022-12-11T11:53:12.972Z,22.60
2022-12-11T12:00:59.799Z,20.13
2022-12-11T12:03:29.264Z,21.13
2022-12-11T12:05:57.318Z,20.35
2022-12-11T12:08:25.520Z,22.98
2022-12-11T12:13:50.434Z,20.83
2022-12-11T12:16:53.187Z,20.23
2022-12-11T12:19:36.513Z,20.35
2022-12-11T12:22:28.525Z,20.05
2022-12-11T12:25:15.450Z,22.48
2022-12-11T12:27:52.793Z,18.70
2022-12-11T12:30:24.296Z,19.00
2022-12-11T12:35:32.892Z,21.08
2022-12-11T12:38:03.651Z,21.98
2022-12-11T12:40:38.288Z,19.83
2022-12-11T12:43:21.280Z,22.80
2022-12-11T12:45:48.886Z,23.15
2022-12-11T12:48:16.745Z,27.63
2022-12-11T12:50:48.635Z,23.10
2022-12-11T12:53:37.410Z,22.98
2022-12-11T12:56:06.295Z,21.70
2022-12-11T12:58:36.881Z,21.98
2022-12-11T13:01:16.274Z,20.13
2022-12-11T13:03:52.445Z,21.05
2022-12-11T13:06:35.561Z,23.33
2022-12-11T13:11:38.840Z,23.60
2022-12-11T13:16:50.928Z,22.70
2022-12-11T13:19:42.873Z,24.90
2022-12-11T13:22:14.209Z,24.23
2022-12-11T13:27:10.490Z,22.50
2022-12-11T13:29:49.637Z,26.20
2022-12-11T13:32:17.152Z,25.10
2022-12-11T13:34:47.902Z,23.50
2022-12-11T13:37:24.076Z,23.77
2022-12-11T13:40:01.730Z,23.42
2022-12-11T13:42:33.785Z,25.33
2022-12-11T13:45:08.207Z,22.85
2022-12-11T13:47:42.793Z,25.05
2022-12-11T13:50:16.197Z,24.10
2022-12-11T13:52:53.682Z,27.02
2022-12-11T13:55:26.334Z,25.45
2022-12-11T13:57:54.598Z,22.38
2022-12-11T14:00:30.164Z,25.77
2022-12-11T14:02:59.217Z,27.35
2022-12-11T14:05:26.872Z,28.52
2022-12-11T14:07:57.232Z,25.77
2022-12-11T14:10:26.530Z,27.13
2022-12-11T14:13:14.371Z,28.08
2022-12-11T14:15:44.655Z,28.67
2022-12-11T14:18:26.979Z,27.42
2022-12-11T14:20:55.938Z,25.30
2022-12-11T14:23:27.552Z,27.38
2022-12-11T14:26:03.620Z,28.38
2022-12-11T14:28:37.207Z,25.98
2022-12-11T14:31:06.014Z,24.05
2022-12-11T14:33:36.138Z,25.58
2022-12-11T14:36:04.306Z,25.20
2022-12-11T14:38:37.386Z,29.52
2022-12-11T14:41:17.476Z,29.42
2022-12-11T14:43:50.708Z,28.77
2022-12-11T14:46:20.519Z,24.38
2022-12-11T14:49:01.200Z,30.48
2022-12-11T14:51:31.780Z,27.67
2022-12-11T14:53:59.797Z,30.73
2022-12-11T14:56:30.304Z,33.90
2022-12-11T14:59:01.190Z,26.00
2022-12-11T15:01:30.677Z,33.30
2022-12-11T15:04:17.703Z,30.15
2022-12-11T15:06:46.442Z,31.33
2022-12-11T15:09:18.476Z,33.10
2022-12-11T15:11:47.057Z,29.48
2022-12-11T15:14:17.068Z,31.38
2022-12-11T15:16:44.967Z,31.52
2022-12-11T15:19:27.780Z,30.15
2022-12-11T15:21:55.646Z,30.85
2022-12-11T15:24:26.296Z,33.33
2022-12-11T15:26:57.519Z,32.58
2022-12-11T15:29:28.250Z,32.03
2022-12-11T15:32:19.178Z,33.65
2022-12-11T15:34:57.449Z,30.52
2022-12-11T15:37:36.667Z,39.35
2022-12-11T15:40:04.820Z,34.83
2022-12-11T15:42:32.627Z,33.75
2022-12-11T15:45:00.658Z,38.03
2022-12-11T15:47:30.979Z,36.83
2022-12-11T15:50:00.389Z,36.58
2022-12-11T15:52:28.307Z,39.75
2022-12-11T15:54:55.959Z,41.03
2022-12-11T15:57:24.885Z,39.55
2022-12-11T15:59:53.747Z,39.53
2022-12-11T16:02:21.654Z,37.05
2022-12-11T16:04:49.289Z,43.83
2022-12-11T16:07:18.603Z,46.63
2022-12-11T16:09:47.339Z,47.65
2022-12-11T16:12:16.983Z,46.65
2022-12-11T16:20:09.833Z,54.42
2022-12-11T16:22:38.399Z,52.17
2022-12-11T16:25:06.256Z,55.30
2022-12-11T16:27:37.353Z,52.60
2022-12-11T16:30:07.781Z,49.72
2022-12-11T16:32:38.631Z,49.28
2022-12-11T16:35:06.434Z,58.92
2022-12-11T16:37:34.288Z,58.78
2022-12-11T16:40:02.072Z,67.25
2022-12-11T16:42:29.608Z,57.42
2022-12-11T16:45:06.489Z,51.60
2022-12-11T16:47:33.988Z,48.75
2022-12-11T16:50:05.437Z,45.40
2022-12-11T16:52:33.756Z,47.97
2022-12-11T16:55:03.002Z,47.63
2022-12-11T16:57:30.524Z,46.92
2022-12-11T16:59:58.294Z,44.47
2022-12-11T17:02:26.129Z,43.17
2022-12-11T17:04:57.703Z,44.53
2022-12-11T17:07:26.439Z,45.50
2022-12-11T17:09:54.061Z,45.38
2022-12-11T17:12:27.986Z,47.78
2022-12-11T17:14:56.480Z,43.55
2022-12-11T17:17:24.696Z,46.97
2022-12-11T17:19:52.392Z,46.35
2022-12-11T17:22:21.527Z,45.70
2022-12-11T17:24:49.548Z,41.53
2022-12-11T17:27:19.653Z,47.03
2022-12-11T17:29:49.529Z,44.13
2022-12-11T17:32:19.956Z,49.10
2022-12-11T17:34:54.832Z,51.77
2022-12-11T17:37:24.638Z,49.97
2022-12-11T17:39:52.195Z,48.35
2022-12-11T17:42:21.576Z,49.35
2022-12-11T17:44:49.080Z,55.55
2022-12-11T17:47:16.592Z,46.80
2022-12-11T17:49:44.177Z,49.13
2022-12-11T17:52:11.954Z,52.70
2022-12-11T17:54:39.506Z,46.70
2022-12-11T17:57:07.166Z,46.45
2022-12-11T17:59:38.643Z,53.08
2022-12-11T18:02:06.236Z,50.20
2022-12-11T18:04:33.888Z,48.17
2022-12-11T18:07:01.544Z,53.15
2022-12-11T18:09:29.023Z,48.53
2022-12-11T18:11:56.535Z,55.40
2022-12-11T18:14:26.728Z,46.58
2022-12-11T18:16:54.302Z,48.38
2022-12-11T18:19:22.658Z,46.40
2022-12-11T18:21:50.344Z,47.70
2022-12-11T18:24:18.456Z,51.33
2022-12-11T18:26:46.731Z,52.90
2022-12-11T18:29:14.453Z,51.85
2022-12-11T18:31:43.413Z,52.97
2022-12-11T18:34:13.528Z,49.75
2022-12-11T18:36:41.131Z,47.90
2022-12-11T18:39:08.835Z,46.70
2022-12-11T18:41:36.448Z,50.50
2022-12-11T18:44:09.705Z,51.15
2022-12-11T18:46:40.623Z,47.25
2022-12-11T18:49:08.182Z,46.30
2022-12-11T18:51:36.125Z,47.42
2022-12-11T18:54:03.779Z,47.85
2022-12-11T18:56:31.542Z,47.88
2022-12-11T18:59:06.635Z,46.97
2022-12-11T19:01:34.606Z,48.47
2022-12-11T19:04:06.680Z,50.45
2022-12-11T19:06:38.310Z,46.95
2022-12-11T19:09:07.053Z,54.83
2022-12-11T19:11:35.184Z,47.88
2022-12-11T19:14:06.941Z,50.67
2022-12-11T19:16:44.426Z,47.47
2022-12-11T19:19:23.318Z,47.17
2022-12-11T19:21:53.674Z,47.90
2022-12-11T19:24:24.580Z,41.63
2022-12-11T19:26:52.480Z,44.03
2022-12-11T19:29:32.576Z,42.23
2022-12-11T19:32:03.162Z,41.67
2022-12-11T19:34:30.938Z,55.30
2022-12-11T19:37:01.656Z,56.75
2022-12-11T19:39:34.131Z,53.70
2022-12-11T19:42:10.857Z,53.53
2022-12-11T19:44:38.695Z,50.13
2022-12-11T19:47:10.660Z,54.10
2022-12-11T19:49:41.193Z,63.10
2022-12-11T19:52:16.281Z,58.53
2022-12-11T19:54:48.446Z,51.10
2022-12-11T19:57:20.298Z,51.58
2022-12-11T19:59:52.567Z,49.60
2022-12-11T20:02:23.765Z,47.40
2022-12-11T20:04:52.431Z,47.72
2022-12-11T20:07:20.274Z,51.40
2022-12-11T20:09:47.740Z,56.33
2022-12-11T20:12:15.366Z,57.25
2022-12-11T20:14:43.798Z,58.58
2022-12-11T20:17:14.497Z,56.28
2022-12-11T20:19:43.195Z,58.58
2022-12-11T20:22:11.355Z,70.07
2022-12-11T20:24:41.698Z,73.43
2022-12-11T20:27:16.949Z,64.05
2022-12-11T20:29:44.700Z,62.83
2022-12-11T20:32:12.654Z,59.67
2022-12-11T20:34:40.354Z,61.22
2022-12-11T20:37:08.227Z,59.53
2022-12-11T20:39:41.924Z,64.72
2022-12-11T20:42:10.534Z,69.60
2022-12-11T20:44:49.282Z,71.47
2022-12-11T20:47:19.960Z,67.25
2022-12-11T20:49:48.514Z,71.47
2022-12-11T20:52:16.992Z,67.65
2022-12-11T20:54:44.635Z,68.00
2022-12-11T20:57:13.470Z,66.00
2022-12-11T20:59:41.105Z,65.57
2022-12-11T21:02:09.217Z,63.58
2022-12-11T21:04:41.251Z,68.40
2022-12-11T21:07:09.173Z,69.13
2022-12-11T21:09:36.932Z,63.92
2022-12-11T21:12:05.108Z,61.65
2022-12-11T21:14:32.813Z,62.05
2022-12-11T21:17:01.449Z,52.22
2022-12-11T21:19:28.950Z,61.13
2022-12-11T21:21:56.720Z,67.50
2022-12-11T21:24:26.450Z,60.53
2022-12-11T21:26:55.519Z,58.72
2022-12-11T21:29:23.901Z,58.22
2022-12-11T21:31:51.509Z,62.30
2022-12-11T21:34:25.102Z,63.45
2022-12-11T21:36:57.064Z,72.13
2022-12-11T21:39:25.617Z,70.63
2022-12-11T21:41:53.501Z,69.35
2022-12-11T21:47:09.594Z,66.35
2022-12-11T21:49:37.936Z,75.32
2022-12-11T21:52:06.061Z,86.75
2022-12-11T21:54:33.997Z,75.85
2022-12-11T21:57:01.847Z,77.53
2022-12-11T21:59:30.106Z,80.97
2022-12-11T22:02:00.564Z,70.32
2022-12-11T22:04:28.396Z,71.72
2022-12-11T22:06:56.048Z,73.28
2022-12-11T22:09:23.830Z,72.25
2022-12-11T22:11:56.558Z,72.70
2022-12-11T22:14:25.766Z,66.22
2022-12-11T22:16:53.301Z,70.97
2022-12-11T22:19:20.812Z,66.97
2022-12-11T22:21:48.374Z,66.03
2022-12-11T22:24:15.970Z,70.82
2022-12-11T22:26:43.442Z,62.33
2022-12-11T22:29:10.885Z,63.08
2022-12-11T22:31:38.418Z,59.67
2022-12-11T22:34:05.972Z,61.38
2022-12-11T22:36:33.500Z,61.17
2022-12-11T22:39:03.495Z,55.25
2022-12-11T22:41:32.259Z,61.10
2022-12-11T22:44:02.341Z,57.60
2022-12-11T22:46:30.966Z,55.80
2022-12-11T22:48:59.177Z,51.25
2022-12-11T22:51:26.712Z,54.30
2022-12-11T22:53:54.182Z,53.85
2022-12-11T22:56:21.964Z,52.40
2022-12-11T22:58:49.482Z,52.97
2022-12-11T23:01:18.378Z,48.38
2022-12-11T23:03:45.973Z,53.30
2022-12-11T23:06:14.809Z,50.63
2022-12-11T23:08:42.954Z,54.40
2022-12-11T23:11:13.215Z,49.22
2022-12-11T23:13:41.014Z,52.47
2022-12-11T23:16:09.131Z,48.90
2022-12-11T23:18:36.638Z,49.10
2022-12-11T23:21:04.573Z,44.92
2022-12-11T23:23:32.079Z,52.17
2022-12-11T23:25:59.552Z,53.85
2022-12-11T23:28:27.209Z,49.17
2022-12-11T23:30:54.964Z,44.08
2022-12-11T23:33:23.575Z,48.58
2022-12-11T23:35:51.020Z,44.72
2022-12-11T23:38:18.547Z,48.22
2022-12-11T23:40:46.282Z,45.95
2022-12-11T23:43:13.814Z,48.08
2022-12-11T23:45:44.114Z,43.85
2022-12-11T23:48:12.588Z,46.93
2022-12-11T23:50:40.547Z,42.53
2022-12-11T23:53:08.042Z,46.95
2022-12-11T23:55:35.518Z,47.63
2022-12-11T23:58:03.035Z,43.55
